UAL8185 PHNL-PGUM
Flight info
| Callsign | UAL8185 |
|---|---|
| Flight time | N/A |
| Altitude | 34000 |
| Route | KEOLA3 NONNI BRIUN A450 SYSTA/N0469F360 A450 JIMOS/N0469F380 A450 DEWSS |
| Aircraft | A339/H-SADE1E2E3GHIJ3J5M1P2RWXY/LB2D1 |
Departure
| Time | N/A |
|---|---|
| Airport | Daniel K. Inouye International Airport (PHNL) |
Arrival
| Time | 2026-05-04 14:18 |
|---|---|
| Airport | Antonio B. Won Pat International Airport (PGUM) |
| Time | Latitude | Longitude | Altitude | Speed | Heading |
|---|---|---|---|---|---|
| 2026-05-04 12:00 | 19.11714 | 168.24388 | 34124 ft | 448 kts | 262° |
| 2026-05-04 12:01 | 19.10675 | 168.18068 | 34097 ft | 449 kts | 262° |
| 2026-05-04 12:02 | 19.03457 | 167.74513 | 34099 ft | 447 kts | 262° |
| 2026-05-04 12:03 | 19.01322 | 167.61752 | 34099 ft | 447 kts | 262° |
| 2026-05-04 12:03 | 18.99349 | 167.50008 | 34090 ft | 447 kts | 262° |
| 2026-05-04 12:04 | 18.97357 | 167.38197 | 34086 ft | 446 kts | 262° |
| 2026-05-04 12:04 | 18.95374 | 167.26492 | 34096 ft | 445 kts | 261° |
| 2026-05-04 12:05 | 18.93556 | 167.15796 | 34091 ft | 445 kts | 261° |
| 2026-05-04 12:05 | 18.91568 | 167.04149 | 34089 ft | 444 kts | 261° |
| 2026-05-04 12:06 | 18.89368 | 166.91319 | 34094 ft | 444 kts | 261° |
| 2026-05-04 12:06 | 18.87235 | 166.78935 | 34089 ft | 444 kts | 262° |
| 2026-05-04 12:07 | 18.85104 | 166.66628 | 34078 ft | 444 kts | 261° |
| 2026-05-04 12:07 | 18.82860 | 166.53870 | 34091 ft | 444 kts | 262° |
| 2026-05-04 12:08 | 18.80610 | 166.41150 | 34084 ft | 443 kts | 262° |
| 2026-05-04 12:08 | 18.78341 | 166.28377 | 34080 ft | 443 kts | 261° |
| 2026-05-04 12:09 | 18.76069 | 166.15648 | 34085 ft | 442 kts | 261° |
| 2026-05-04 12:09 | 18.73797 | 166.02965 | 34089 ft | 442 kts | 261° |
| 2026-05-04 12:10 | 18.71513 | 165.90271 | 34086 ft | 441 kts | 261° |
| 2026-05-04 12:10 | 18.69240 | 165.77683 | 34088 ft | 441 kts | 261° |
| 2026-05-04 12:11 | 18.66952 | 165.65065 | 34086 ft | 441 kts | 261° |
| 2026-05-04 12:11 | 18.64642 | 165.52373 | 34088 ft | 440 kts | 261° |
| 2026-05-04 12:12 | 18.62346 | 165.39815 | 34086 ft | 440 kts | 261° |
| 2026-05-04 12:12 | 18.60021 | 165.27142 | 34082 ft | 439 kts | 261° |
| 2026-05-04 12:14 | 18.50708 | 164.76860 | 34079 ft | 438 kts | 261° |
| 2026-05-04 12:15 | 18.48356 | 164.64298 | 34075 ft | 438 kts | 261° |
| 2026-05-04 12:15 | 18.46013 | 164.51813 | 34078 ft | 439 kts | 261° |
| 2026-05-04 12:16 | 18.43649 | 164.39267 | 34071 ft | 437 kts | 261° |
| 2026-05-04 12:16 | 18.41278 | 164.26737 | 34083 ft | 438 kts | 261° |
| 2026-05-04 12:17 | 18.38894 | 164.14180 | 34075 ft | 438 kts | 261° |
| 2026-05-04 12:17 | 18.36510 | 164.01663 | 34078 ft | 438 kts | 261° |
| 2026-05-04 12:18 | 18.34107 | 163.89104 | 34069 ft | 438 kts | 261° |
| 2026-05-04 12:18 | 18.31718 | 163.76666 | 34075 ft | 437 kts | 261° |
| 2026-05-04 12:19 | 18.29299 | 163.64105 | 34066 ft | 436 kts | 261° |
| 2026-05-04 12:19 | 18.26888 | 163.51642 | 34071 ft | 436 kts | 261° |
| 2026-05-04 12:20 | 18.24472 | 163.39198 | 34062 ft | 436 kts | 261° |
| 2026-05-04 12:20 | 18.22044 | 163.26726 | 34074 ft | 436 kts | 261° |
| 2026-05-04 12:21 | 18.19618 | 163.14314 | 34062 ft | 436 kts | 261° |
| 2026-05-04 12:21 | 18.17168 | 163.01836 | 34073 ft | 435 kts | 261° |
| 2026-05-04 12:22 | 18.14719 | 162.89388 | 34057 ft | 435 kts | 261° |
| 2026-05-04 12:22 | 18.12272 | 162.77011 | 34072 ft | 434 kts | 261° |
| 2026-05-04 12:23 | 18.09820 | 162.64644 | 34053 ft | 435 kts | 261° |
| 2026-05-04 12:23 | 18.07352 | 162.52237 | 34072 ft | 435 kts | 261° |
| 2026-05-04 12:24 | 18.04888 | 162.39899 | 34057 ft | 434 kts | 261° |
| 2026-05-04 12:24 | 18.02435 | 162.27660 | 34069 ft | 434 kts | 260° |
| 2026-05-04 12:25 | 18.00160 | 162.16336 | 34058 ft | 433 kts | 260° |
| 2026-05-04 12:25 | 17.98913 | 162.10152 | 34062 ft | 433 kts | 260° |
| 2026-05-04 12:26 | 17.97664 | 162.03964 | 34066 ft | 433 kts | 260° |
| 2026-05-04 12:26 | 17.96418 | 161.97803 | 34061 ft | 433 kts | 260° |
| 2026-05-04 12:27 | 17.95172 | 161.91650 | 34059 ft | 433 kts | 260° |
| 2026-05-04 12:27 | 17.93918 | 161.85469 | 34059 ft | 433 kts | 260° |
| 2026-05-04 12:28 | 17.92665 | 161.79303 | 34067 ft | 433 kts | 260° |
| 2026-05-04 12:28 | 17.91415 | 161.73164 | 34063 ft | 433 kts | 260° |
| 2026-05-04 12:29 | 17.90153 | 161.66974 | 34053 ft | 433 kts | 260° |
| 2026-05-04 12:29 | 17.88899 | 161.60835 | 34050 ft | 433 kts | 260° |
| 2026-05-04 12:30 | 17.87641 | 161.54692 | 34049 ft | 432 kts | 260° |
| 2026-05-04 12:30 | 17.85955 | 161.46460 | 34047 ft | 432 kts | 260° |
| 2026-05-04 12:31 | 17.83423 | 161.34140 | 34051 ft | 432 kts | 260° |
| 2026-05-04 12:31 | 17.80900 | 161.21913 | 34047 ft | 432 kts | 260° |
| 2026-05-04 12:32 | 17.77081 | 161.03473 | 34047 ft | 433 kts | 260° |
| 2026-05-04 12:33 | 17.74522 | 160.91167 | 34047 ft | 432 kts | 260° |
| 2026-05-04 12:33 | 17.71955 | 160.78867 | 34043 ft | 432 kts | 260° |
| 2026-05-04 12:34 | 17.69390 | 160.66611 | 34047 ft | 432 kts | 260° |
| 2026-05-04 12:34 | 17.66806 | 160.54311 | 34043 ft | 432 kts | 260° |
| 2026-05-04 12:35 | 17.64239 | 160.42127 | 34048 ft | 432 kts | 260° |
| 2026-05-04 12:35 | 17.61648 | 160.29868 | 34046 ft | 432 kts | 259° |
| 2026-05-04 12:36 | 17.59036 | 160.17548 | 34041 ft | 433 kts | 259° |
| 2026-05-04 12:36 | 17.56431 | 160.05307 | 34042 ft | 431 kts | 259° |
| 2026-05-04 12:37 | 17.53824 | 159.93088 | 34036 ft | 433 kts | 259° |
| 2026-05-04 12:37 | 17.51209 | 159.80870 | 34034 ft | 431 kts | 259° |
| 2026-05-04 12:38 | 17.48587 | 159.68655 | 34027 ft | 432 kts | 259° |
| 2026-05-04 12:38 | 17.45938 | 159.56366 | 34037 ft | 432 kts | 259° |
| 2026-05-04 12:39 | 17.43562 | 159.45372 | 34033 ft | 431 kts | 259° |
| 2026-05-04 12:39 | 17.41559 | 159.36114 | 34034 ft | 431 kts | 259° |
| 2026-05-04 12:40 | 17.40233 | 159.30008 | 34035 ft | 431 kts | 259° |
| 2026-05-04 12:40 | 17.38897 | 159.23868 | 34032 ft | 431 kts | 259° |
| 2026-05-04 12:41 | 17.37576 | 159.17804 | 34027 ft | 431 kts | 259° |
| 2026-05-04 12:41 | 17.36244 | 159.11694 | 34038 ft | 431 kts | 259° |
| 2026-05-04 12:42 | 17.34910 | 159.05588 | 34031 ft | 431 kts | 259° |
| 2026-05-04 12:42 | 17.33581 | 158.99501 | 34029 ft | 431 kts | 259° |
| 2026-05-04 12:43 | 17.32240 | 158.93385 | 34021 ft | 430 kts | 259° |
| 2026-05-04 12:43 | 17.30907 | 158.87317 | 34028 ft | 430 kts | 259° |
| 2026-05-04 12:44 | 17.29574 | 158.81244 | 34030 ft | 430 kts | 259° |
| 2026-05-04 12:44 | 17.28237 | 158.75166 | 34036 ft | 430 kts | 259° |
| 2026-05-04 12:45 | 17.26893 | 158.69069 | 34034 ft | 430 kts | 259° |
| 2026-05-04 12:45 | 17.25556 | 158.63016 | 34031 ft | 429 kts | 259° |
| 2026-05-04 12:46 | 17.24210 | 158.56929 | 34033 ft | 429 kts | 259° |
| 2026-05-04 12:46 | 17.22863 | 158.50842 | 34033 ft | 430 kts | 259° |
| 2026-05-04 12:47 | 17.21520 | 158.44783 | 34025 ft | 429 kts | 259° |
| 2026-05-04 12:47 | 17.20173 | 158.38721 | 34024 ft | 429 kts | 259° |
| 2026-05-04 12:48 | 17.18825 | 158.32663 | 34032 ft | 428 kts | 259° |
| 2026-05-04 12:48 | 17.17474 | 158.26598 | 34038 ft | 429 kts | 258° |
| 2026-05-04 12:49 | 17.16123 | 158.20538 | 34026 ft | 429 kts | 258° |
| 2026-05-04 12:49 | 17.14769 | 158.14478 | 34031 ft | 429 kts | 258° |
| 2026-05-04 12:50 | 17.13415 | 158.08427 | 34031 ft | 429 kts | 258° |
| 2026-05-04 12:50 | 17.12060 | 158.02393 | 34032 ft | 428 kts | 259° |
| 2026-05-04 12:51 | 17.10707 | 157.96365 | 34020 ft | 429 kts | 258° |
| 2026-05-04 12:51 | 17.09344 | 157.90302 | 34029 ft | 429 kts | 258° |
| 2026-05-04 12:52 | 17.07980 | 157.84253 | 34032 ft | 429 kts | 258° |
| 2026-05-04 12:52 | 17.06615 | 157.78203 | 34032 ft | 429 kts | 258° |
| 2026-05-04 12:53 | 17.05248 | 157.72139 | 34029 ft | 429 kts | 258° |
| 2026-05-04 12:53 | 17.03883 | 157.66078 | 34029 ft | 428 kts | 258° |
| 2026-05-04 12:54 | 17.02523 | 157.60056 | 34036 ft | 427 kts | 258° |
| 2026-05-04 12:54 | 17.01161 | 157.54045 | 34033 ft | 428 kts | 258° |
| 2026-05-04 12:55 | 16.99790 | 157.48000 | 34032 ft | 427 kts | 258° |
| 2026-05-04 12:55 | 16.98426 | 157.41998 | 34024 ft | 428 kts | 258° |
| 2026-05-04 12:56 | 16.97050 | 157.35953 | 34024 ft | 428 kts | 258° |
| 2026-05-04 12:56 | 16.95670 | 157.29901 | 34023 ft | 428 kts | 258° |
| 2026-05-04 12:57 | 16.94295 | 157.23879 | 34013 ft | 429 kts | 258° |
| 2026-05-04 12:57 | 16.92916 | 157.17851 | 34012 ft | 429 kts | 258° |
| 2026-05-04 12:58 | 16.91527 | 157.11784 | 34008 ft | 429 kts | 258° |
| 2026-05-04 12:58 | 16.90143 | 157.05753 | 33999 ft | 429 kts | 258° |
| 2026-05-04 12:59 | 16.88753 | 156.99703 | 34007 ft | 428 kts | 258° |
| 2026-05-04 12:59 | 16.87368 | 156.93680 | 34004 ft | 428 kts | 258° |
| 2026-05-04 13:00 | 16.85984 | 156.87669 | 34004 ft | 428 kts | 258° |
| 2026-05-04 13:00 | 16.84589 | 156.81621 | 34010 ft | 428 kts | 258° |
| 2026-05-04 13:01 | 16.83198 | 156.75598 | 34002 ft | 428 kts | 258° |
| 2026-05-04 13:01 | 16.81803 | 156.69566 | 34005 ft | 428 kts | 258° |
| 2026-05-04 13:02 | 16.80460 | 156.63766 | 34000 ft | 429 kts | 258° |
| 2026-05-04 13:02 | 16.79052 | 156.57698 | 34004 ft | 430 kts | 258° |
| 2026-05-04 13:03 | 16.77649 | 156.51656 | 34002 ft | 429 kts | 258° |
| 2026-05-04 13:03 | 16.76251 | 156.45648 | 34007 ft | 430 kts | 258° |
| 2026-05-04 13:04 | 16.74837 | 156.39581 | 34000 ft | 429 kts | 258° |
| 2026-05-04 13:04 | 16.73429 | 156.33545 | 34007 ft | 429 kts | 258° |
| 2026-05-04 13:05 | 16.72017 | 156.27495 | 34006 ft | 429 kts | 257° |
| 2026-05-04 13:05 | 16.70614 | 156.21495 | 34005 ft | 429 kts | 257° |
| 2026-05-04 13:06 | 16.69196 | 156.15443 | 34003 ft | 429 kts | 257° |
| 2026-05-04 13:06 | 16.67788 | 156.09439 | 34002 ft | 430 kts | 257° |
| 2026-05-04 13:07 | 16.66360 | 156.03357 | 34003 ft | 430 kts | 257° |
| 2026-05-04 13:07 | 16.64944 | 155.97340 | 34004 ft | 431 kts | 257° |
| 2026-05-04 13:08 | 16.63519 | 155.91289 | 34004 ft | 431 kts | 257° |
| 2026-05-04 13:08 | 16.62092 | 155.85242 | 34003 ft | 430 kts | 257° |
| 2026-05-04 13:09 | 16.60657 | 155.79161 | 34002 ft | 430 kts | 257° |
| 2026-05-04 13:09 | 16.59238 | 155.73160 | 34001 ft | 430 kts | 257° |
| 2026-05-04 13:10 | 16.57799 | 155.67084 | 34001 ft | 430 kts | 257° |
| 2026-05-04 13:10 | 16.56370 | 155.61058 | 34001 ft | 430 kts | 257° |
| 2026-05-04 13:11 | 16.54940 | 155.55039 | 34003 ft | 431 kts | 257° |
| 2026-05-04 13:11 | 16.53492 | 155.48950 | 34001 ft | 431 kts | 257° |
| 2026-05-04 13:12 | 16.52055 | 155.42909 | 33999 ft | 430 kts | 257° |
| 2026-05-04 13:12 | 16.50613 | 155.36862 | 33992 ft | 431 kts | 257° |
| 2026-05-04 13:13 | 16.49177 | 155.30846 | 33993 ft | 431 kts | 257° |
| 2026-05-04 13:13 | 16.47732 | 155.24805 | 33988 ft | 430 kts | 257° |
| 2026-05-04 13:14 | 16.46289 | 155.18777 | 33986 ft | 431 kts | 257° |
| 2026-05-04 13:14 | 16.44833 | 155.12707 | 33992 ft | 430 kts | 257° |
| 2026-05-04 13:15 | 16.43387 | 155.06679 | 33985 ft | 431 kts | 257° |
| 2026-05-04 13:15 | 16.41940 | 155.00664 | 33984 ft | 432 kts | 257° |
| 2026-05-04 13:16 | 16.40478 | 154.94582 | 33985 ft | 432 kts | 257° |
| 2026-05-04 13:16 | 16.39017 | 154.88525 | 33981 ft | 432 kts | 257° |
| 2026-05-04 13:17 | 16.37560 | 154.82486 | 33985 ft | 432 kts | 257° |
| 2026-05-04 13:17 | 16.36099 | 154.76442 | 33985 ft | 432 kts | 257° |
| 2026-05-04 13:18 | 16.34641 | 154.70416 | 33983 ft | 431 kts | 257° |
| 2026-05-04 13:18 | 16.33177 | 154.64375 | 33983 ft | 431 kts | 257° |
| 2026-05-04 13:19 | 16.31715 | 154.58351 | 33980 ft | 431 kts | 257° |
| 2026-05-04 13:19 | 16.30247 | 154.52306 | 33981 ft | 431 kts | 257° |
| 2026-05-04 13:20 | 16.28775 | 154.46256 | 33981 ft | 431 kts | 257° |
| 2026-05-04 13:20 | 16.27316 | 154.40263 | 33984 ft | 431 kts | 257° |
| 2026-05-04 13:21 | 16.25841 | 154.34215 | 33982 ft | 431 kts | 256° |
| 2026-05-04 13:21 | 16.24362 | 154.28165 | 33979 ft | 431 kts | 257° |
| 2026-05-04 13:22 | 16.22889 | 154.22141 | 33976 ft | 432 kts | 257° |
| 2026-05-04 13:22 | 16.21412 | 154.16106 | 33977 ft | 432 kts | 257° |
| 2026-05-04 13:23 | 16.19936 | 154.10084 | 33975 ft | 432 kts | 257° |
| 2026-05-04 13:23 | 16.18450 | 154.04030 | 33978 ft | 432 kts | 257° |
| 2026-05-04 13:24 | 16.16963 | 153.97986 | 33974 ft | 432 kts | 257° |
| 2026-05-04 13:24 | 16.15471 | 153.91923 | 33970 ft | 432 kts | 257° |
| 2026-05-04 13:25 | 16.13245 | 153.82890 | 33973 ft | 432 kts | 256° |
| 2026-05-04 13:25 | 16.10575 | 153.72086 | 33968 ft | 432 kts | 256° |
| 2026-05-04 13:26 | 16.07596 | 153.60054 | 33973 ft | 432 kts | 257° |
| 2026-05-04 13:26 | 16.04585 | 153.47929 | 33977 ft | 431 kts | 257° |
| 2026-05-04 13:27 | 16.01601 | 153.35942 | 33974 ft | 431 kts | 257° |
| 2026-05-04 13:27 | 15.98594 | 153.23889 | 33971 ft | 432 kts | 256° |
| 2026-05-04 13:28 | 15.95585 | 153.11862 | 33967 ft | 432 kts | 256° |
| 2026-05-04 13:28 | 15.92576 | 152.99870 | 33968 ft | 431 kts | 256° |
| 2026-05-04 13:29 | 15.89541 | 152.87799 | 33973 ft | 431 kts | 256° |
| 2026-05-04 13:29 | 15.86504 | 152.75748 | 33967 ft | 432 kts | 256° |
| 2026-05-04 13:30 | 15.83462 | 152.63715 | 33974 ft | 432 kts | 256° |
| 2026-05-04 13:30 | 15.80423 | 152.51710 | 33971 ft | 432 kts | 256° |
| 2026-05-04 13:31 | 15.77378 | 152.39726 | 33970 ft | 432 kts | 256° |
| 2026-05-04 13:31 | 15.74312 | 152.27684 | 33968 ft | 432 kts | 256° |
| 2026-05-04 13:32 | 15.71253 | 152.15697 | 33971 ft | 432 kts | 256° |
| 2026-05-04 13:32 | 15.68186 | 152.03706 | 33971 ft | 431 kts | 256° |
| 2026-05-04 13:33 | 15.65105 | 151.91698 | 33970 ft | 431 kts | 256° |
| 2026-05-04 13:33 | 15.62027 | 151.79718 | 33971 ft | 432 kts | 256° |
| 2026-05-04 13:34 | 15.58917 | 151.67654 | 33968 ft | 433 kts | 256° |
| 2026-05-04 13:34 | 15.55819 | 151.55659 | 33972 ft | 433 kts | 256° |
| 2026-05-04 13:35 | 15.51139 | 151.37596 | 33958 ft | 434 kts | 256° |
| 2026-05-04 13:36 | 15.48013 | 151.25571 | 33958 ft | 434 kts | 256° |
| 2026-05-04 13:36 | 15.44870 | 151.13500 | 33961 ft | 435 kts | 256° |
| 2026-05-04 13:37 | 15.41720 | 151.01436 | 33956 ft | 435 kts | 256° |
| 2026-05-04 13:37 | 15.38567 | 150.89394 | 33956 ft | 435 kts | 256° |
| 2026-05-04 13:38 | 15.35383 | 150.77257 | 33957 ft | 436 kts | 256° |
| 2026-05-04 13:38 | 15.32210 | 150.65187 | 33956 ft | 436 kts | 256° |
| 2026-05-04 13:39 | 15.29040 | 150.53162 | 33955 ft | 436 kts | 256° |
| 2026-05-04 13:39 | 15.25835 | 150.41038 | 33954 ft | 436 kts | 256° |
| 2026-05-04 13:40 | 15.22644 | 150.28986 | 33956 ft | 436 kts | 256° |
| 2026-05-04 13:40 | 15.19453 | 150.16959 | 33953 ft | 436 kts | 256° |
| 2026-05-04 13:41 | 15.16230 | 150.04852 | 33952 ft | 436 kts | 256° |
| 2026-05-04 13:41 | 15.13035 | 149.92866 | 33953 ft | 437 kts | 256° |
| 2026-05-04 13:42 | 15.08178 | 149.74703 | 33951 ft | 437 kts | 256° |
| 2026-05-04 13:42 | 15.04956 | 149.62694 | 33952 ft | 437 kts | 256° |
| 2026-05-04 13:43 | 15.01703 | 149.50589 | 33946 ft | 438 kts | 256° |
| 2026-05-04 13:43 | 14.98452 | 149.38530 | 33943 ft | 437 kts | 256° |
| 2026-05-04 13:44 | 14.95170 | 149.26376 | 33941 ft | 439 kts | 255° |
| 2026-05-04 13:44 | 14.91879 | 149.14230 | 33937 ft | 439 kts | 255° |
| 2026-05-04 13:45 | 14.88599 | 149.02158 | 33940 ft | 439 kts | 255° |
| 2026-05-04 13:45 | 14.85195 | 148.90012 | 33938 ft | 440 kts | 255° |
| 2026-05-04 13:46 | 14.81726 | 148.77972 | 33940 ft | 441 kts | 255° |
| 2026-05-04 13:46 | 14.78211 | 148.65781 | 33937 ft | 441 kts | 255° |
| 2026-05-04 13:47 | 14.74706 | 148.53653 | 33940 ft | 442 kts | 255° |
| 2026-05-04 13:47 | 14.71206 | 148.41556 | 33935 ft | 443 kts | 254° |
| 2026-05-04 13:48 | 14.67935 | 148.30286 | 33939 ft | 443 kts | 254° |
| 2026-05-04 13:48 | 14.63674 | 148.15636 | 33937 ft | 443 kts | 254° |
| 2026-05-04 13:49 | 14.59959 | 148.02882 | 33942 ft | 443 kts | 254° |
| 2026-05-04 13:49 | 14.56619 | 147.91452 | 33943 ft | 443 kts | 254° |
| 2026-05-04 13:50 | 14.53467 | 147.80678 | 33941 ft | 438 kts | 253° |
| 2026-05-04 13:50 | 14.50367 | 147.70106 | 33938 ft | 437 kts | 253° |
| 2026-05-04 13:51 | 14.47001 | 147.58646 | 33942 ft | 435 kts | 253° |
| 2026-05-04 13:51 | 14.43514 | 147.46797 | 33942 ft | 434 kts | 253° |
| 2026-05-04 13:52 | 14.38277 | 147.29047 | 33937 ft | 436 kts | 253° |
| 2026-05-04 13:53 | 14.34784 | 147.17239 | 33937 ft | 436 kts | 253° |
| 2026-05-04 13:53 | 14.31267 | 147.05370 | 33931 ft | 435 kts | 253° |
| 2026-05-04 13:54 | 14.26276 | 146.88574 | 33934 ft | 435 kts | 253° |
| 2026-05-04 13:55 | 14.23130 | 146.78006 | 33935 ft | 436 kts | 253° |
| 2026-05-04 13:55 | 14.20430 | 146.68956 | 33935 ft | 437 kts | 253° |
| 2026-05-04 13:56 | 14.17668 | 146.59712 | 33236 ft | 434 kts | 253° |
| 2026-05-04 13:56 | 14.14172 | 146.48025 | 31340 ft | 430 kts | 253° |
| 2026-05-04 13:57 | 14.12410 | 146.42148 | 30133 ft | 433 kts | 253° |
| 2026-05-04 13:57 | 14.10625 | 146.36206 | 28869 ft | 437 kts | 253° |
| 2026-05-04 13:58 | 14.05304 | 146.18492 | 26023 ft | 429 kts | 253° |
| 2026-05-04 13:58 | 14.01822 | 146.06940 | 24411 ft | 417 kts | 253° |
| 2026-05-04 13:58 | 14.00129 | 146.01323 | 23592 ft | 413 kts | 253° |
| 2026-05-04 13:59 | 13.98447 | 145.95754 | 22767 ft | 410 kts | 253° |
| 2026-05-04 13:59 | 13.96774 | 145.90225 | 21956 ft | 406 kts | 253° |
| 2026-05-04 13:59 | 13.93549 | 145.79572 | 20315 ft | 403 kts | 253° |
| 2026-05-04 14:00 | 13.91990 | 145.74425 | 19536 ft | 401 kts | 253° |
| 2026-05-04 14:00 | 13.88859 | 145.64107 | 17963 ft | 397 kts | 253° |
| 2026-05-04 14:00 | 13.87223 | 145.58725 | 17134 ft | 395 kts | 253° |
| 2026-05-04 14:01 | 13.85625 | 145.53465 | 16345 ft | 392 kts | 253° |
| 2026-05-04 14:01 | 13.84121 | 145.48523 | 15649 ft | 388 kts | 253° |
| 2026-05-04 14:01 | 13.81073 | 145.38521 | 14219 ft | 381 kts | 253° |
| 2026-05-04 14:02 | 13.79699 | 145.34012 | 13565 ft | 377 kts | 252° |
| 2026-05-04 14:02 | 13.78349 | 145.29587 | 12926 ft | 374 kts | 252° |
| 2026-05-04 14:02 | 13.76929 | 145.24944 | 12234 ft | 371 kts | 252° |
| 2026-05-04 14:02 | 13.75746 | 145.21077 | 11666 ft | 368 kts | 252° |
| 2026-05-04 14:03 | 13.74971 | 145.18544 | 11284 ft | 366 kts | 252° |
| 2026-05-04 14:03 | 13.74206 | 145.16045 | 10920 ft | 364 kts | 252° |
| 2026-05-04 14:03 | 13.73443 | 145.13553 | 10547 ft | 363 kts | 252° |
| 2026-05-04 14:03 | 13.72691 | 145.11098 | 10183 ft | 361 kts | 252° |
| 2026-05-04 14:04 | 13.71233 | 145.06332 | 9966 ft | 334 kts | 252° |
| 2026-05-04 14:04 | 13.70550 | 145.04106 | 9934 ft | 315 kts | 252° |
| 2026-05-04 14:04 | 13.69905 | 145.02006 | 9927 ft | 302 kts | 252° |
| 2026-05-04 14:05 | 13.68648 | 144.97914 | 9453 ft | 302 kts | 252° |
| 2026-05-04 14:05 | 13.68014 | 144.95850 | 9171 ft | 302 kts | 252° |
| 2026-05-04 14:05 | 13.67386 | 144.93800 | 8900 ft | 301 kts | 252° |
| 2026-05-04 14:06 | 13.66757 | 144.91754 | 8637 ft | 300 kts | 252° |
| 2026-05-04 14:06 | 13.66132 | 144.89722 | 8377 ft | 299 kts | 252° |
| 2026-05-04 14:06 | 13.65505 | 144.87679 | 8108 ft | 299 kts | 252° |
| 2026-05-04 14:06 | 13.64882 | 144.85652 | 7842 ft | 298 kts | 252° |
| 2026-05-04 14:07 | 13.64254 | 144.83615 | 7577 ft | 298 kts | 252° |
| 2026-05-04 14:07 | 13.63630 | 144.81584 | 7311 ft | 297 kts | 252° |
| 2026-05-04 14:07 | 13.63010 | 144.79575 | 7051 ft | 297 kts | 252° |
| 2026-05-04 14:07 | 13.62383 | 144.77537 | 6783 ft | 296 kts | 252° |
| 2026-05-04 14:08 | 13.61761 | 144.75519 | 6517 ft | 296 kts | 252° |
| 2026-05-04 14:08 | 13.61137 | 144.73494 | 6253 ft | 296 kts | 252° |
| 2026-05-04 14:08 | 13.60515 | 144.71475 | 5983 ft | 296 kts | 252° |
| 2026-05-04 14:08 | 13.60334 | 144.70862 | 5898 ft | 296 kts | 253° |
| 2026-05-04 14:09 | 13.59306 | 144.67262 | 5413 ft | 296 kts | 246° |
| 2026-05-04 14:09 | 13.58385 | 144.65373 | 5178 ft | 294 kts | 237° |
| 2026-05-04 14:10 | 13.55905 | 144.62158 | 4709 ft | 286 kts | 220° |
| 2026-05-04 14:10 | 13.54371 | 144.60835 | 4403 ft | 286 kts | 212° |
| 2026-05-04 14:10 | 13.52696 | 144.59741 | 4131 ft | 284 kts | 204° |
| 2026-05-04 14:10 | 13.50901 | 144.58887 | 3872 ft | 281 kts | 196° |
| 2026-05-04 14:11 | 13.49028 | 144.58284 | 3618 ft | 278 kts | 188° |
| 2026-05-04 14:11 | 13.45228 | 144.57849 | 3144 ft | 271 kts | 173° |
| 2026-05-04 14:11 | 13.43380 | 144.57997 | 2956 ft | 265 kts | 166° |
| 2026-05-04 14:12 | 13.41636 | 144.58418 | 2891 ft | 245 kts | 147° |
| 2026-05-04 14:12 | 13.40497 | 144.59523 | 2886 ft | 210 kts | 112° |
| 2026-05-04 14:12 | 13.40495 | 144.62097 | 2852 ft | 168 kts | 71° |
| 2026-05-04 14:13 | 13.40921 | 144.63159 | 2862 ft | 151 kts | 68° |
| 2026-05-04 14:13 | 13.41338 | 144.64081 | 2868 ft | 136 kts | 67° |
| 2026-05-04 14:13 | 13.41742 | 144.64955 | 2877 ft | 137 kts | 67° |
| 2026-05-04 14:13 | 13.42154 | 144.65851 | 2742 ft | 137 kts | 67° |
| 2026-05-04 14:14 | 13.42556 | 144.66730 | 2569 ft | 136 kts | 67° |
| 2026-05-04 14:14 | 13.43358 | 144.68484 | 2229 ft | 135 kts | 66° |
| 2026-05-04 14:14 | 13.43757 | 144.69360 | 2052 ft | 135 kts | 66° |
| 2026-05-04 14:15 | 13.44556 | 144.71106 | 1728 ft | 134 kts | 66° |
| 2026-05-04 14:15 | 13.45345 | 144.72835 | 1373 ft | 134 kts | 66° |
| 2026-05-04 14:16 | 13.46136 | 144.74561 | 1034 ft | 133 kts | 66° |
| 2026-05-04 14:16 | 13.46533 | 144.75429 | 858 ft | 132 kts | 65° |
| 2026-05-04 14:17 | 13.47316 | 144.77139 | 527 ft | 132 kts | 65° |
| 2026-05-04 14:17 | 13.47707 | 144.77982 | 346 ft | 130 kts | 65° |
| 2026-05-04 14:17 | 13.48405 | 144.79521 | 275 ft | 88 kts | 68° |
| 2026-05-04 14:18 | 13.48599 | 144.79947 | 280 ft | 43 kts | 65° |
| 2026-05-04 14:18 | 13.48764 | 144.80249 | 285 ft | 19 kts | 46° |
| 2026-05-04 14:19 | 13.48835 | 144.80309 | 287 ft | 0 kts | 36° |
| 2026-05-04 14:19 | 13.48852 | 144.80321 | 287 ft | 5 kts | 35° |
| 2026-05-04 14:19 | 13.48909 | 144.80360 | 286 ft | 13 kts | 34° |
| 2026-05-04 14:19 | 13.48996 | 144.80428 | 285 ft | 16 kts | 47° |
| 2026-05-04 14:20 | 13.49055 | 144.80527 | 287 ft | 14 kts | 61° |
| 2026-05-04 14:20 | 13.49087 | 144.80562 | 288 ft | 6 kts | 10° |
| 2026-05-04 14:20 | 13.49139 | 144.80547 | 284 ft | 6 kts | 335° |
| 2026-05-04 14:21 | 13.49151 | 144.80541 | 283 ft | 0 kts | 334° |